sensor_id;sensor_type;location;lat;lon;timestamp;temperature;humidity
13684;DHT22;6914;53.552;9.908;2022-09-13T00:02:21;17.70;99.90
13684;DHT22;6914;53.552;9.908;2022-09-13T00:04:48;17.70;99.90
13684;DHT22;6914;53.552;9.908;2022-09-13T00:07:15;17.70;99.90
13684;DHT22;6914;53.552;9.908;2022-09-13T00:09:43;17.80;99.90
13684;DHT22;6914;53.552;9.908;2022-09-13T00:12:10;17.70;99.90
13684;DHT22;6914;53.552;9.908;2022-09-13T00:17:59;17.80;99.90
13684;DHT22;6914;53.552;9.908;2022-09-13T00:20:26;17.80;99.90
13684;DHT22;6914;53.552;9.908;2022-09-13T00:22:53;17.70;99.90
13684;DHT22;6914;53.552;9.908;2022-09-13T00:25:22;17.80;99.90
13684;DHT22;6914;53.552;9.908;2022-09-13T00:27:49;17.80;99.90
13684;DHT22;6914;53.552;9.908;2022-09-13T00:30:16;17.80;99.90
13684;DHT22;6914;53.552;9.908;2022-09-13T00:32:43;17.70;99.90
13684;DHT22;6914;53.552;9.908;2022-09-13T00:35:10;17.80;99.90
13684;DHT22;6914;53.552;9.908;2022-09-13T00:37:37;17.70;99.90
13684;DHT22;6914;53.552;9.908;2022-09-13T00:40:06;17.50;99.90
13684;DHT22;6914;53.552;9.908;2022-09-13T00:42:34;17.30;99.90
13684;DHT22;6914;53.552;9.908;2022-09-13T00:45:14;17.10;99.90
13684;DHT22;6914;53.552;9.908;2022-09-13T00:47:46;16.90;99.90
13684;DHT22;6914;53.552;9.908;2022-09-13T00:50:18;16.80;99.90
13684;DHT22;6914;53.552;9.908;2022-09-13T00:52:48;16.70;99.90
13684;DHT22;6914;53.552;9.908;2022-09-13T00:55:21;16.50;99.90
13684;DHT22;6914;53.552;9.908;2022-09-13T00:57:51;16.80;99.90
13684;DHT22;6914;53.552;9.908;2022-09-13T01:00:19;16.40;99.90
13684;DHT22;6914;53.552;9.908;2022-09-13T01:02:49;16.40;99.90
13684;DHT22;6914;53.552;9.908;2022-09-13T01:05:21;16.30;99.90
13684;DHT22;6914;53.552;9.908;2022-09-13T01:07:50;16.20;99.90
13684;DHT22;6914;53.552;9.908;2022-09-13T01:10:17;16.20;99.90
13684;DHT22;6914;53.552;9.908;2022-09-13T01:12:48;16.00;99.90
13684;DHT22;6914;53.552;9.908;2022-09-13T01:15:19;15.70;99.90
13684;DHT22;6914;53.552;9.908;2022-09-13T01:17:47;15.90;99.90
13684;DHT22;6914;53.552;9.908;2022-09-13T01:20:15;15.80;99.90
13684;DHT22;6914;53.552;9.908;2022-09-13T01:26:12;15.60;99.90
13684;DHT22;6914;53.552;9.908;2022-09-13T01:31:59;15.50;99.90
13684;DHT22;6914;53.552;9.908;2022-09-13T01:34:38;15.50;99.90
13684;DHT22;6914;53.552;9.908;2022-09-13T01:37:25;15.50;99.90
13684;DHT22;6914;53.552;9.908;2022-09-13T01:40:09;15.40;99.90
13684;DHT22;6914;53.552;9.908;2022-09-13T01:42:53;15.40;99.90
13684;DHT22;6914;53.552;9.908;2022-09-13T01:45:36;15.40;99.90
13684;DHT22;6914;53.552;9.908;2022-09-13T01:48:12;15.40;99.90
13684;DHT22;6914;53.552;9.908;2022-09-13T01:50:48;15.40;99.90
13684;DHT22;6914;53.552;9.908;2022-09-13T01:53:33;15.40;99.90
13684;DHT22;6914;53.552;9.908;2022-09-13T01:56:04;15.40;99.90
13684;DHT22;6914;53.552;9.908;2022-09-13T01:58:40;15.40;99.90
13684;DHT22;6914;53.552;9.908;2022-09-13T02:01:11;15.40;99.90
13684;DHT22;6914;53.552;9.908;2022-09-13T02:03:48;15.40;99.90
13684;DHT22;6914;53.552;9.908;2022-09-13T02:06:21;15.50;99.90
13684;DHT22;6914;53.552;9.908;2022-09-13T02:08:53;15.40;99.90
13684;DHT22;6914;53.552;9.908;2022-09-13T02:11:21;15.50;99.90
13684;DHT22;6914;53.552;9.908;2022-09-13T02:13:55;15.50;99.90
13684;DHT22;6914;53.552;9.908;2022-09-13T02:16:27;15.50;99.90
13684;DHT22;6914;53.552;9.908;2022-09-13T02:18:58;15.50;99.90
13684;DHT22;6914;53.552;9.908;2022-09-13T02:21:33;15.50;99.90
13684;DHT22;6914;53.552;9.908;2022-09-13T02:24:06;15.50;99.90
13684;DHT22;6914;53.552;9.908;2022-09-13T02:26:35;15.50;99.90
13684;DHT22;6914;53.552;9.908;2022-09-13T02:29:07;15.50;99.90
13684;DHT22;6914;53.552;9.908;2022-09-13T02:31:38;15.60;99.90
13684;DHT22;6914;53.552;9.908;2022-09-13T02:34:13;15.60;99.90
13684;DHT22;6914;53.552;9.908;2022-09-13T02:36:42;15.50;99.90
13684;DHT22;6914;53.552;9.908;2022-09-13T02:39:13;15.60;99.90
13684;DHT22;6914;53.552;9.908;2022-09-13T02:41:45;15.50;99.90
13684;DHT22;6914;53.552;9.908;2022-09-13T02:44:18;15.60;99.90
13684;DHT22;6914;53.552;9.908;2022-09-13T02:47:09;15.60;99.90
13684;DHT22;6914;53.552;9.908;2022-09-13T02:49:47;15.60;99.90
13684;DHT22;6914;53.552;9.908;2022-09-13T02:52:21;15.60;99.90
13684;DHT22;6914;53.552;9.908;2022-09-13T02:54:53;15.60;99.90
13684;DHT22;6914;53.552;9.908;2022-09-13T02:57:26;15.60;99.90
13684;DHT22;6914;53.552;9.908;2022-09-13T02:59:56;15.60;99.90
13684;DHT22;6914;53.552;9.908;2022-09-13T03:02:27;15.70;99.90
13684;DHT22;6914;53.552;9.908;2022-09-13T03:04:59;15.60;99.90
13684;DHT22;6914;53.552;9.908;2022-09-13T03:07:27;15.60;99.90
13684;DHT22;6914;53.552;9.908;2022-09-13T03:09:57;15.60;99.90
13684;DHT22;6914;53.552;9.908;2022-09-13T03:15:32;15.50;99.90
13684;DHT22;6914;53.552;9.908;2022-09-13T03:18:09;15.60;99.90
13684;DHT22;6914;53.552;9.908;2022-09-13T03:20:51;15.50;99.90
13684;DHT22;6914;53.552;9.908;2022-09-13T03:23:41;15.40;99.90
13684;DHT22;6914;53.552;9.908;2022-09-13T03:26:37;15.50;99.90
13684;DHT22;6914;53.552;9.908;2022-09-13T03:29:30;15.40;99.90
13684;DHT22;6914;53.552;9.908;2022-09-13T03:32:19;15.30;99.90
13684;DHT22;6914;53.552;9.908;2022-09-13T03:35:03;15.30;99.90
13684;DHT22;6914;53.552;9.908;2022-09-13T03:37:43;15.20;99.90
13684;DHT22;6914;53.552;9.908;2022-09-13T03:40:14;15.30;99.90
13684;DHT22;6914;53.552;9.908;2022-09-13T03:42:45;15.30;99.90
13684;DHT22;6914;53.552;9.908;2022-09-13T03:45:16;15.30;99.90
13684;DHT22;6914;53.552;9.908;2022-09-13T03:47:45;15.30;99.90
13684;DHT22;6914;53.552;9.908;2022-09-13T03:50:18;15.30;99.90
13684;DHT22;6914;53.552;9.908;2022-09-13T03:52:51;15.30;99.90
13684;DHT22;6914;53.552;9.908;2022-09-13T03:55:21;15.30;99.90
13684;DHT22;6914;53.552;9.908;2022-09-13T03:57:48;15.30;99.90
13684;DHT22;6914;53.552;9.908;2022-09-13T04:00:15;15.30;99.90
13684;DHT22;6914;53.552;9.908;2022-09-13T04:02:43;15.30;99.90
13684;DHT22;6914;53.552;9.908;2022-09-13T04:05:10;15.40;99.90
13684;DHT22;6914;53.552;9.908;2022-09-13T04:07:37;15.40;99.90
13684;DHT22;6914;53.552;9.908;2022-09-13T04:10:08;15.40;99.90
13684;DHT22;6914;53.552;9.908;2022-09-13T04:12:36;15.40;99.90
13684;DHT22;6914;53.552;9.908;2022-09-13T04:15:06;15.30;99.90
13684;DHT22;6914;53.552;9.908;2022-09-13T04:17:34;15.40;99.90
13684;DHT22;6914;53.552;9.908;2022-09-13T04:20:02;15.40;99.90
13684;DHT22;6914;53.552;9.908;2022-09-13T04:22:30;15.40;99.90
13684;DHT22;6914;53.552;9.908;2022-09-13T04:24:58;15.30;99.90
13684;DHT22;6914;53.552;9.908;2022-09-13T04:27:26;15.30;99.90
13684;DHT22;6914;53.552;9.908;2022-09-13T04:29:53;15.30;99.90
13684;DHT22;6914;53.552;9.908;2022-09-13T04:32:20;15.30;99.90
13684;DHT22;6914;53.552;9.908;2022-09-13T04:34:48;15.30;99.90
13684;DHT22;6914;53.552;9.908;2022-09-13T04:37:15;15.20;99.90
13684;DHT22;6914;53.552;9.908;2022-09-13T04:39:42;15.30;99.90
13684;DHT22;6914;53.552;9.908;2022-09-13T04:42:09;15.20;99.90
13684;DHT22;6914;53.552;9.908;2022-09-13T04:58:46;15.00;99.90
13684;DHT22;6914;53.552;9.908;2022-09-13T05:01:13;15.10;99.90
13684;DHT22;6914;53.552;9.908;2022-09-13T05:03:40;15.10;99.90
13684;DHT22;6914;53.552;9.908;2022-09-13T05:06:08;15.10;99.90
13684;DHT22;6914;53.552;9.908;2022-09-13T05:08:36;15.00;99.90
13684;DHT22;6914;53.552;9.908;2022-09-13T05:11:05;15.00;99.90
13684;DHT22;6914;53.552;9.908;2022-09-13T05:13:33;15.00;99.90
13684;DHT22;6914;53.552;9.908;2022-09-13T05:16:03;15.10;99.90
13684;DHT22;6914;53.552;9.908;2022-09-13T05:18:32;15.10;99.90
13684;DHT22;6914;53.552;9.908;2022-09-13T05:21:01;15.10;99.90
13684;DHT22;6914;53.552;9.908;2022-09-13T05:23:30;15.10;99.90
13684;DHT22;6914;53.552;9.908;2022-09-13T05:25:59;15.10;99.90
13684;DHT22;6914;53.552;9.908;2022-09-13T05:28:27;15.10;99.90
13684;DHT22;6914;53.552;9.908;2022-09-13T05:30:56;15.10;99.90
13684;DHT22;6914;53.552;9.908;2022-09-13T05:33:25;15.10;99.90
13684;DHT22;6914;53.552;9.908;2022-09-13T05:35:53;15.10;99.90
13684;DHT22;6914;53.552;9.908;2022-09-13T05:38:20;15.20;99.90
13684;DHT22;6914;53.552;9.908;2022-09-13T05:40:52;15.20;99.90
13684;DHT22;6914;53.552;9.908;2022-09-13T05:43:21;15.20;99.90
13684;DHT22;6914;53.552;9.908;2022-09-13T05:45:48;15.30;99.90
13684;DHT22;6914;53.552;9.908;2022-09-13T05:48:15;15.30;99.90
13684;DHT22;6914;53.552;9.908;2022-09-13T05:50:44;15.40;99.90
13684;DHT22;6914;53.552;9.908;2022-09-13T05:53:11;15.40;99.90
13684;DHT22;6914;53.552;9.908;2022-09-13T05:55:38;15.50;99.90
13684;DHT22;6914;53.552;9.908;2022-09-13T05:58:05;15.50;99.90
13684;DHT22;6914;53.552;9.908;2022-09-13T06:00:33;15.50;99.90
13684;DHT22;6914;53.552;9.908;2022-09-13T06:03:00;15.50;99.90
13684;DHT22;6914;53.552;9.908;2022-09-13T06:05:27;15.60;99.90
13684;DHT22;6914;53.552;9.908;2022-09-13T06:07:56;15.60;99.90
13684;DHT22;6914;53.552;9.908;2022-09-13T06:10:23;15.60;99.90
13684;DHT22;6914;53.552;9.908;2022-09-13T06:12:50;15.70;99.90
13684;DHT22;6914;53.552;9.908;2022-09-13T06:15:17;15.70;99.90
13684;DHT22;6914;53.552;9.908;2022-09-13T06:17:45;15.70;99.90
13684;DHT22;6914;53.552;9.908;2022-09-13T06:20:12;15.70;99.90
13684;DHT22;6914;53.552;9.908;2022-09-13T06:22:40;15.70;99.90
13684;DHT22;6914;53.552;9.908;2022-09-13T06:25:08;15.80;99.90
13684;DHT22;6914;53.552;9.908;2022-09-13T06:27:36;15.80;99.90
13684;DHT22;6914;53.552;9.908;2022-09-13T06:30:04;16.00;99.90
13684;DHT22;6914;53.552;9.908;2022-09-13T06:32:33;15.90;99.90
13684;DHT22;6914;53.552;9.908;2022-09-13T06:35:02;15.90;99.90
13684;DHT22;6914;53.552;9.908;2022-09-13T06:37:29;16.00;99.90
13684;DHT22;6914;53.552;9.908;2022-09-13T06:39:56;16.10;99.90
13684;DHT22;6914;53.552;9.908;2022-09-13T06:42:25;16.10;99.90
13684;DHT22;6914;53.552;9.908;2022-09-13T06:44:52;16.30;99.90
13684;DHT22;6914;53.552;9.908;2022-09-13T06:47:19;16.40;99.90
13684;DHT22;6914;53.552;9.908;2022-09-13T06:49:46;16.40;99.90
13684;DHT22;6914;53.552;9.908;2022-09-13T06:52:13;16.50;99.90
13684;DHT22;6914;53.552;9.908;2022-09-13T06:54:40;16.50;99.90
13684;DHT22;6914;53.552;9.908;2022-09-13T06:57:08;16.60;99.90
13684;DHT22;6914;53.552;9.908;2022-09-13T06:59:36;16.60;99.90
13684;DHT22;6914;53.552;9.908;2022-09-13T07:02:03;16.60;99.90
13684;DHT22;6914;53.552;9.908;2022-09-13T07:04:30;16.70;99.90
13684;DHT22;6914;53.552;9.908;2022-09-13T07:06:58;16.80;99.90
13684;DHT22;6914;53.552;9.908;2022-09-13T07:09:26;16.80;99.90
13684;DHT22;6914;53.552;9.908;2022-09-13T07:11:54;16.90;99.90
13684;DHT22;6914;53.552;9.908;2022-09-13T07:14:23;16.90;99.90
13684;DHT22;6914;53.552;9.908;2022-09-13T07:16:52;16.90;99.90
13684;DHT22;6914;53.552;9.908;2022-09-13T07:19:25;16.90;99.90
13684;DHT22;6914;53.552;9.908;2022-09-13T07:21:53;17.00;99.90
13684;DHT22;6914;53.552;9.908;2022-09-13T07:24:21;17.20;99.90
13684;DHT22;6914;53.552;9.908;2022-09-13T07:26:48;17.30;99.90
13684;DHT22;6914;53.552;9.908;2022-09-13T07:29:17;17.30;99.90
13684;DHT22;6914;53.552;9.908;2022-09-13T07:31:48;17.30;99.90
13684;DHT22;6914;53.552;9.908;2022-09-13T07:34:19;17.20;99.90
13684;DHT22;6914;53.552;9.908;2022-09-13T07:36:50;17.20;99.90
13684;DHT22;6914;53.552;9.908;2022-09-13T07:39:17;17.20;99.90
13684;DHT22;6914;53.552;9.908;2022-09-13T07:41:45;17.40;99.90
13684;DHT22;6914;53.552;9.908;2022-09-13T07:44:13;17.50;99.90
13684;DHT22;6914;53.552;9.908;2022-09-13T07:46:40;17.70;99.90
13684;DHT22;6914;53.552;9.908;2022-09-13T07:49:09;17.80;99.90
13684;DHT22;6914;53.552;9.908;2022-09-13T07:51:39;17.90;99.90
13684;DHT22;6914;53.552;9.908;2022-09-13T07:54:10;17.80;99.90
13684;DHT22;6914;53.552;9.908;2022-09-13T07:56:39;17.70;99.90
13684;DHT22;6914;53.552;9.908;2022-09-13T07:59:09;17.70;99.90
13684;DHT22;6914;53.552;9.908;2022-09-13T08:01:38;17.80;99.90
13684;DHT22;6914;53.552;9.908;2022-09-13T08:04:07;17.80;99.90
13684;DHT22;6914;53.552;9.908;2022-09-13T08:06:36;17.90;99.90
13684;DHT22;6914;53.552;9.908;2022-09-13T08:09:08;17.90;99.90
13684;DHT22;6914;53.552;9.908;2022-09-13T08:11:39;18.00;99.90
13684;DHT22;6914;53.552;9.908;2022-09-13T08:14:09;18.00;99.90
13684;DHT22;6914;53.552;9.908;2022-09-13T08:16:37;17.90;99.90
13684;DHT22;6914;53.552;9.908;2022-09-13T08:19:06;17.90;99.90
13684;DHT22;6914;53.552;9.908;2022-09-13T08:21:35;17.90;99.90
13684;DHT22;6914;53.552;9.908;2022-09-13T08:24:07;17.80;99.90
13684;DHT22;6914;53.552;9.908;2022-09-13T08:26:38;17.90;99.90
13684;DHT22;6914;53.552;9.908;2022-09-13T08:29:05;17.90;99.90
13684;DHT22;6914;53.552;9.908;2022-09-13T08:31:33;17.90;99.90
13684;DHT22;6914;53.552;9.908;2022-09-13T08:34:00;18.00;99.90
13684;DHT22;6914;53.552;9.908;2022-09-13T08:36:28;18.10;99.90
13684;DHT22;6914;53.552;9.908;2022-09-13T08:38:56;18.20;99.90
13684;DHT22;6914;53.552;9.908;2022-09-13T08:44:23;18.40;99.90
13684;DHT22;6914;53.552;9.908;2022-09-13T08:46:56;18.40;99.90
13684;DHT22;6914;53.552;9.908;2022-09-13T08:49:27;18.50;99.90
13684;DHT22;6914;53.552;9.908;2022-09-13T08:51:58;18.50;99.90
13684;DHT22;6914;53.552;9.908;2022-09-13T08:54:27;18.50;99.90
13684;DHT22;6914;53.552;9.908;2022-09-13T08:57:00;18.50;99.90
13684;DHT22;6914;53.552;9.908;2022-09-13T08:59:37;18.60;99.90
13684;DHT22;6914;53.552;9.908;2022-09-13T09:02:19;18.90;99.90
13684;DHT22;6914;53.552;9.908;2022-09-13T09:04:53;19.30;99.90
13684;DHT22;6914;53.552;9.908;2022-09-13T09:07:25;19.60;99.90
13684;DHT22;6914;53.552;9.908;2022-09-13T09:09:55;19.60;99.90
13684;DHT22;6914;53.552;9.908;2022-09-13T09:12:31;19.50;99.90
13684;DHT22;6914;53.552;9.908;2022-09-13T09:15:04;19.40;99.90
13684;DHT22;6914;53.552;9.908;2022-09-13T09:17:45;19.30;99.90
13684;DHT22;6914;53.552;9.908;2022-09-13T09:20:24;19.30;99.90
13684;DHT22;6914;53.552;9.908;2022-09-13T09:22:59;19.70;99.90
13684;DHT22;6914;53.552;9.908;2022-09-13T09:25:27;20.20;99.90
13684;DHT22;6914;53.552;9.908;2022-09-13T09:27:57;20.50;99.90
13684;DHT22;6914;53.552;9.908;2022-09-13T09:33:19;20.50;99.90
13684;DHT22;6914;53.552;9.908;2022-09-13T09:35:56;20.90;99.90
13684;DHT22;6914;53.552;9.908;2022-09-13T09:38:32;21.50;99.90
13684;DHT22;6914;53.552;9.908;2022-09-13T09:41:02;22.50;99.90
13684;DHT22;6914;53.552;9.908;2022-09-13T09:43:37;23.30;99.90
13684;DHT22;6914;53.552;9.908;2022-09-13T09:46:07;24.30;92.20
13684;DHT22;6914;53.552;9.908;2022-09-13T09:48:42;24.80;75.70
13684;DHT22;6914;53.552;9.908;2022-09-13T09:51:11;25.70;67.10
13684;DHT22;6914;53.552;9.908;2022-09-13T09:53:43;25.90;64.70
13684;DHT22;6914;53.552;9.908;2022-09-13T09:56:20;26.30;61.40
13684;DHT22;6914;53.552;9.908;2022-09-13T09:58:51;26.30;58.40
13684;DHT22;6914;53.552;9.908;2022-09-13T10:01:23;26.40;59.00
13684;DHT22;6914;53.552;9.908;2022-09-13T10:04:03;26.90;57.30
13684;DHT22;6914;53.552;9.908;2022-09-13T10:06:35;27.60;56.50
13684;DHT22;6914;53.552;9.908;2022-09-13T10:09:04;28.30;54.10
13684;DHT22;6914;53.552;9.908;2022-09-13T10:11:43;28.40;53.90
13684;DHT22;6914;53.552;9.908;2022-09-13T10:14:40;28.10;52.40
13684;DHT22;6914;53.552;9.908;2022-09-13T10:17:16;26.70;52.70
13684;DHT22;6914;53.552;9.908;2022-09-13T10:19:54;25.50;55.80
13684;DHT22;6914;53.552;9.908;2022-09-13T10:22:24;25.00;58.80
13684;DHT22;6914;53.552;9.908;2022-09-13T10:24:52;25.40;61.10
13684;DHT22;6914;53.552;9.908;2022-09-13T10:27:24;26.00;58.00
13684;DHT22;6914;53.552;9.908;2022-09-13T10:29:56;25.80;56.20
13684;DHT22;6914;53.552;9.908;2022-09-13T10:32:26;26.60;53.40
13684;DHT22;6914;53.552;9.908;2022-09-13T10:34:54;26.80;51.80
13684;DHT22;6914;53.552;9.908;2022-09-13T10:37:25;27.10;50.20
13684;DHT22;6914;53.552;9.908;2022-09-13T10:40:01;27.20;49.70
13684;DHT22;6914;53.552;9.908;2022-09-13T10:42:33;27.10;49.60
13684;DHT22;6914;53.552;9.908;2022-09-13T10:45:03;27.70;49.20
13684;DHT22;6914;53.552;9.908;2022-09-13T10:47:33;27.90;49.00
13684;DHT22;6914;53.552;9.908;2022-09-13T10:50:21;28.10;48.90
13684;DHT22;6914;53.552;9.908;2022-09-13T10:52:49;28.30;46.80
13684;DHT22;6914;53.552;9.908;2022-09-13T10:55:26;28.20;47.10
13684;DHT22;6914;53.552;9.908;2022-09-13T10:57:55;28.30;46.60
13684;DHT22;6914;53.552;9.908;2022-09-13T11:00:57;28.50;46.70
13684;DHT22;6914;53.552;9.908;2022-09-13T11:03:42;29.10;47.20
13684;DHT22;6914;53.552;9.908;2022-09-13T11:06:18;28.60;45.80
13684;DHT22;6914;53.552;9.908;2022-09-13T11:08:52;28.20;47.00
13684;DHT22;6914;53.552;9.908;2022-09-13T11:11:28;27.90;48.30
13684;DHT22;6914;53.552;9.908;2022-09-13T11:14:15;28.40;47.40
13684;DHT22;6914;53.552;9.908;2022-09-13T11:16:53;28.60;46.50
13684;DHT22;6914;53.552;9.908;2022-09-13T11:22:32;28.50;46.00
13684;DHT22;6914;53.552;9.908;2022-09-13T11:25:13;28.30;46.90
13684;DHT22;6914;53.552;9.908;2022-09-13T11:28:06;28.60;45.30
13684;DHT22;6914;53.552;9.908;2022-09-13T11:30:51;28.50;44.30
13684;DHT22;6914;53.552;9.908;2022-09-13T11:33:33;28.20;45.50
13684;DHT22;6914;53.552;9.908;2022-09-13T11:36:39;28.50;46.20
13684;DHT22;6914;53.552;9.908;2022-09-13T11:39:15;28.20;45.90
13684;DHT22;6914;53.552;9.908;2022-09-13T11:41:52;28.40;45.50
13684;DHT22;6914;53.552;9.908;2022-09-13T11:44:54;27.80;46.00
13684;DHT22;6914;53.552;9.908;2022-09-13T11:47:36;27.10;47.20
13684;DHT22;6914;53.552;9.908;2022-09-13T11:50:19;26.90;44.80
13684;DHT22;6914;53.552;9.908;2022-09-13T11:52:56;26.20;45.80
13684;DHT22;6914;53.552;9.908;2022-09-13T11:55:29;25.70;47.60
13684;DHT22;6914;53.552;9.908;2022-09-13T11:58:00;25.90;49.30
13684;DHT22;6914;53.552;9.908;2022-09-13T12:00:31;26.20;48.60
13684;DHT22;6914;53.552;9.908;2022-09-13T12:03:06;26.50;48.30
13684;DHT22;6914;53.552;9.908;2022-09-13T12:05:42;26.90;47.00
13684;DHT22;6914;53.552;9.908;2022-09-13T12:08:17;27.50;46.20
13684;DHT22;6914;53.552;9.908;2022-09-13T12:10:50;28.00;46.30
13684;DHT22;6914;53.552;9.908;2022-09-13T12:13:21;27.90;46.30
13684;DHT22;6914;53.552;9.908;2022-09-13T12:15:51;27.50;46.80
13684;DHT22;6914;53.552;9.908;2022-09-13T12:18:23;27.60;47.90
13684;DHT22;6914;53.552;9.908;2022-09-13T12:20:56;27.60;47.60
13684;DHT22;6914;53.552;9.908;2022-09-13T12:23:29;27.80;47.60
13684;DHT22;6914;53.552;9.908;2022-09-13T12:26:00;27.70;47.90
13684;DHT22;6914;53.552;9.908;2022-09-13T12:28:31;28.10;46.80
13684;DHT22;6914;53.552;9.908;2022-09-13T12:31:05;28.50;46.00
13684;DHT22;6914;53.552;9.908;2022-09-13T12:33:38;28.50;45.70
13684;DHT22;6914;53.552;9.908;2022-09-13T12:36:37;27.90;46.80
13684;DHT22;6914;53.552;9.908;2022-09-13T12:39:36;27.70;47.50
13684;DHT22;6914;53.552;9.908;2022-09-13T12:45:26;27.60;48.70
13684;DHT22;6914;53.552;9.908;2022-09-13T12:51:15;28.30;47.90
13684;DHT22;6914;53.552;9.908;2022-09-13T12:57:12;26.30;50.30
13684;DHT22;6914;53.552;9.908;2022-09-13T12:59:54;25.20;52.00
13684;DHT22;6914;53.552;9.908;2022-09-13T13:02:30;24.80;53.40
13684;DHT22;6914;53.552;9.908;2022-09-13T13:05:03;24.00;54.50
13684;DHT22;6914;53.552;9.908;2022-09-13T13:07:33;23.70;56.00
13684;DHT22;6914;53.552;9.908;2022-09-13T13:10:03;23.40;57.10
13684;DHT22;6914;53.552;9.908;2022-09-13T13:12:34;23.60;59.00
13684;DHT22;6914;53.552;9.908;2022-09-13T13:15:06;23.90;59.80
13684;DHT22;6914;53.552;9.908;2022-09-13T13:17:40;23.90;57.20
13684;DHT22;6914;53.552;9.908;2022-09-13T13:21:02;23.50;56.70
13684;DHT22;6914;53.552;9.908;2022-09-13T13:23:31;23.60;58.00
13684;DHT22;6914;53.552;9.908;2022-09-13T13:26:05;23.30;56.50
13684;DHT22;6914;53.552;9.908;2022-09-13T13:32:07;23.20;59.40
13684;DHT22;6914;53.552;9.908;2022-09-13T13:34:39;23.40;61.70
13684;DHT22;6914;53.552;9.908;2022-09-13T13:37:30;23.40;60.40
13684;DHT22;6914;53.552;9.908;2022-09-13T13:40:20;23.40;64.20
13684;DHT22;6914;53.552;9.908;2022-09-13T13:42:49;23.00;61.60
13684;DHT22;6914;53.552;9.908;2022-09-13T13:45:24;22.60;68.70
13684;DHT22;6914;53.552;9.908;2022-09-13T13:48:09;22.20;86.20
13684;DHT22;6914;53.552;9.908;2022-09-13T13:51:12;22.10;99.90
13684;DHT22;6914;53.552;9.908;2022-09-13T13:53:42;22.10;99.90
13684;DHT22;6914;53.552;9.908;2022-09-13T13:56:29;22.00;99.90
13684;DHT22;6914;53.552;9.908;2022-09-13T13:59:02;21.80;99.90
13684;DHT22;6914;53.552;9.908;2022-09-13T14:01:33;21.70;99.90
13684;DHT22;6914;53.552;9.908;2022-09-13T14:07:57;21.30;99.90
13684;DHT22;6914;53.552;9.908;2022-09-13T14:10:36;21.10;99.90
13684;DHT22;6914;53.552;9.908;2022-09-13T14:13:21;20.80;99.90
13684;DHT22;6914;53.552;9.908;2022-09-13T14:15:58;20.40;99.90
13684;DHT22;6914;53.552;9.908;2022-09-13T14:21:34;20.90;99.90
13684;DHT22;6914;53.552;9.908;2022-09-13T14:24:15;21.20;99.90
13684;DHT22;6914;53.552;9.908;2022-09-13T14:26:44;21.30;99.90
13684;DHT22;6914;53.552;9.908;2022-09-13T14:29:15;21.40;99.90
13684;DHT22;6914;53.552;9.908;2022-09-13T14:31:45;21.50;99.90
13684;DHT22;6914;53.552;9.908;2022-09-13T14:34:20;21.30;99.90
13684;DHT22;6914;53.552;9.908;2022-09-13T14:36:52;21.20;99.90
13684;DHT22;6914;53.552;9.908;2022-09-13T14:39:21;21.10;99.90
13684;DHT22;6914;53.552;9.908;2022-09-13T14:41:57;21.10;99.90
13684;DHT22;6914;53.552;9.908;2022-09-13T14:44:25;21.10;99.90
13684;DHT22;6914;53.552;9.908;2022-09-13T14:46:58;20.90;99.90
13684;DHT22;6914;53.552;9.908;2022-09-13T14:49:33;20.80;99.90
13684;DHT22;6914;53.552;9.908;2022-09-13T14:52:06;20.70;99.90
13684;DHT22;6914;53.552;9.908;2022-09-13T14:54:37;20.90;99.90
13684;DHT22;6914;53.552;9.908;2022-09-13T14:57:07;21.00;99.90
13684;DHT22;6914;53.552;9.908;2022-09-13T14:59:40;21.10;99.90
13684;DHT22;6914;53.552;9.908;2022-09-13T15:02:16;21.00;99.90
13684;DHT22;6914;53.552;9.908;2022-09-13T15:04:49;20.60;99.90
13684;DHT22;6914;53.552;9.908;2022-09-13T15:07:26;20.60;99.90
13684;DHT22;6914;53.552;9.908;2022-09-13T15:09:57;20.30;99.90
13684;DHT22;6914;53.552;9.908;2022-09-13T15:12:31;20.20;99.90
13684;DHT22;6914;53.552;9.908;2022-09-13T15:15:33;20.20;99.90
13684;DHT22;6914;53.552;9.908;2022-09-13T15:18:03;20.30;99.90
13684;DHT22;6914;53.552;9.908;2022-09-13T15:20:44;20.50;99.90
13684;DHT22;6914;53.552;9.908;2022-09-13T15:23:14;20.60;99.90
13684;DHT22;6914;53.552;9.908;2022-09-13T15:25:49;20.60;99.90
13684;DHT22;6914;53.552;9.908;2022-09-13T15:28:23;20.50;99.90
13684;DHT22;6914;53.552;9.908;2022-09-13T15:30:50;20.30;99.90
13684;DHT22;6914;53.552;9.908;2022-09-13T15:33:26;20.30;99.90
13684;DHT22;6914;53.552;9.908;2022-09-13T15:36:12;20.30;99.90
13684;DHT22;6914;53.552;9.908;2022-09-13T15:38:57;20.20;99.90
13684;DHT22;6914;53.552;9.908;2022-09-13T15:41:29;19.80;99.90
13684;DHT22;6914;53.552;9.908;2022-09-13T15:43:58;19.60;99.90
13684;DHT22;6914;53.552;9.908;2022-09-13T15:46:25;19.40;99.90
13684;DHT22;6914;53.552;9.908;2022-09-13T15:48:54;19.30;99.90
13684;DHT22;6914;53.552;9.908;2022-09-13T15:51:21;19.30;99.90
13684;DHT22;6914;53.552;9.908;2022-09-13T15:53:49;19.30;99.90
13684;DHT22;6914;53.552;9.908;2022-09-13T15:56:17;19.30;99.90
13684;DHT22;6914;53.552;9.908;2022-09-13T15:58:46;19.30;99.90
13684;DHT22;6914;53.552;9.908;2022-09-13T16:01:15;19.30;99.90
13684;DHT22;6914;53.552;9.908;2022-09-13T16:03:43;19.20;99.90
13684;DHT22;6914;53.552;9.908;2022-09-13T16:06:10;19.10;99.90
13684;DHT22;6914;53.552;9.908;2022-09-13T16:08:38;18.90;99.90
13684;DHT22;6914;53.552;9.908;2022-09-13T16:11:05;18.80;99.90
13684;DHT22;6914;53.552;9.908;2022-09-13T16:13:33;18.70;99.90
13684;DHT22;6914;53.552;9.908;2022-09-13T16:16:02;18.70;99.90
13684;DHT22;6914;53.552;9.908;2022-09-13T16:18:30;18.60;99.90
13684;DHT22;6914;53.552;9.908;2022-09-13T16:20:58;18.70;99.90
13684;DHT22;6914;53.552;9.908;2022-09-13T16:23:25;18.70;99.90
13684;DHT22;6914;53.552;9.908;2022-09-13T16:25:55;18.70;99.90
13684;DHT22;6914;53.552;9.908;2022-09-13T16:28:24;18.70;99.90
13684;DHT22;6914;53.552;9.908;2022-09-13T16:30:52;18.70;99.90
13684;DHT22;6914;53.552;9.908;2022-09-13T16:33:21;18.70;99.90
13684;DHT22;6914;53.552;9.908;2022-09-13T16:35:48;18.60;99.90
13684;DHT22;6914;53.552;9.908;2022-09-13T16:38:15;18.60;99.90
13684;DHT22;6914;53.552;9.908;2022-09-13T16:40:43;18.50;99.90
13684;DHT22;6914;53.552;9.908;2022-09-13T16:43:10;18.50;99.90
13684;DHT22;6914;53.552;9.908;2022-09-13T16:45:39;18.50;99.90
13684;DHT22;6914;53.552;9.908;2022-09-13T16:48:07;18.50;99.90
13684;DHT22;6914;53.552;9.908;2022-09-13T16:50:38;18.40;99.90
13684;DHT22;6914;53.552;9.908;2022-09-13T16:53:07;18.30;99.90
13684;DHT22;6914;53.552;9.908;2022-09-13T16:55:35;18.30;99.90
13684;DHT22;6914;53.552;9.908;2022-09-13T16:58:03;18.20;99.90
13684;DHT22;6914;53.552;9.908;2022-09-13T17:00:30;18.20;99.90
13684;DHT22;6914;53.552;9.908;2022-09-13T17:02:57;18.10;99.90
13684;DHT22;6914;53.552;9.908;2022-09-13T17:05:24;18.10;99.90
13684;DHT22;6914;53.552;9.908;2022-09-13T17:07:53;18.00;99.90
13684;DHT22;6914;53.552;9.908;2022-09-13T17:10:20;18.00;99.90
13684;DHT22;6914;53.552;9.908;2022-09-13T17:12:48;17.90;99.90
13684;DHT22;6914;53.552;9.908;2022-09-13T17:26:47;17.50;99.90